Hoyt Lakes, Minnesota
Current Conditions -  °F | °C
As of 3:51 AM on Thursday 23 Oct 2014 (Local Time) from KEVM Reporting Station
Moderate Rain Moderate Rain  
Wind Chill: 44°   Ceiling: 2300
Heat Index: 46°   Visibility: 10mi
Dew Point: 41°   Wind: 6mph
Humidity: 81%   Direction: 180°S
Pressure: 29.96"   Gusts: NA
Location:  47.52°N, 92.14°W
Report Text: KEVM 230851Z AUTO 18005KT 10SM RA SCT008 BKN023 08/05 A2996 RMK AO2
Loading
Personal Weather Stations






























Interactive Weather Map
Tropical Storm Tracking
New forecast layout! Learn more

10-Day Weather Forecast

Advertisements
Track Severe Weather on mobile